Nearby METAR Reports

 

YMML - Melbourne Intl A, Australia
Distance from station: SSW 13km
Updated: Mon, 20-Sep-2021 11:00am AEST
Light rain, Showers, Mostly cloudy
Light rain, Showers, Mostly cloudy
 Wind from W
Wind: W 39 km/h, Gust: 57 km/h
Temperature: 12°C
Dew Point: 4°C
Humidity: 58%
Barometer: 1012 hPa
Summary: Light rain, Showers
Clouds: Mostly Cloudy
Visibility: 10 km
Cloud details: Mostly Cloudy 1433 m
2021/09/20 01:00 YMML 200100Z 27021G31KT 9999 -SHRA BKN047 12/04 Q1012
YMEN - Melbourne/Essend, Australia
Distance from station: S 16km
Updated: Mon, 20-Sep-2021 11:03am AEST
Mostly Cloudy
Mostly Cloudy
 Wind from W
Wind: W 35 km/h, Gust: 54 km/h
Temperature: 12°C
Dew Point: 3°C
Humidity: 54%
Barometer: 1012 hPa
Clouds: Mostly Cloudy
Visibility: 10 km
Cloud details: Partly Cloudy 1494 m
Mostly Cloudy 1707 m
Mostly Cloudy 2042 m
2021/09/20 01:03 YMEN 200103Z AUTO 26019G29KT 9999 // SCT049 BKN056 BKN067 12/03 Q1012
 
YMAV - Avalon Airport, Australia
Distance from station: SW 63km
Updated: Mon, 20-Sep-2021 11:30am AEST
Light rain, Showers, Mostly cloudy
Light rain, Showers, Mostly cloudy
 Wind from W
Wind: W 44 km/h, Gust: 63 km/h
Temperature: 9°C
Wind Chill: 4°C
Dew Point: 5°C
Humidity: 76%
Barometer: 1012 hPa
Summary: Light rain, Showers
Clouds: Mostly Cloudy
Visibility: 10 km
Cloud details: Partly Cloudy 518 m
Partly Cloudy 1128 m
Mostly Cloudy 1402 m
2021/09/20 01:30 YMAV 200130Z AUTO 26024G34KT 9999 -SHRA SCT017 SCT037 BKN046 09/05 Q1012

Metar display script from Saratoga-Weather.org